sensor_id;sensor_type;location;lat;lon;timestamp;temperature;humidity
20233;DHT22;37438;55.674;13.074;2023-08-06T00:00:34;14.80;99.90
20233;DHT22;37438;55.674;13.074;2023-08-06T00:03:38;14.80;99.90
20233;DHT22;37438;55.674;13.074;2023-08-06T00:06:43;14.80;99.90
20233;DHT22;37438;55.674;13.074;2023-08-06T00:09:48;14.80;99.90
20233;DHT22;37438;55.674;13.074;2023-08-06T00:12:52;14.70;99.90
20233;DHT22;37438;55.674;13.074;2023-08-06T00:16:07;14.80;99.90
20233;DHT22;37438;55.674;13.074;2023-08-06T00:19:11;14.70;99.90
20233;DHT22;37438;55.674;13.074;2023-08-06T00:22:16;14.80;99.90
20233;DHT22;37438;55.674;13.074;2023-08-06T00:25:20;14.80;99.90
20233;DHT22;37438;55.674;13.074;2023-08-06T00:28:24;14.70;99.90
20233;DHT22;37438;55.674;13.074;2023-08-06T00:31:28;14.70;99.90
20233;DHT22;37438;55.674;13.074;2023-08-06T00:34:33;14.70;99.90
20233;DHT22;37438;55.674;13.074;2023-08-06T00:37:39;14.60;99.90
20233;DHT22;37438;55.674;13.074;2023-08-06T00:40:44;14.60;99.90
20233;DHT22;37438;55.674;13.074;2023-08-06T00:43:48;14.70;99.90
20233;DHT22;37438;55.674;13.074;2023-08-06T00:46:52;14.60;99.90
20233;DHT22;37438;55.674;13.074;2023-08-06T00:49:57;14.60;99.90
20233;DHT22;37438;55.674;13.074;2023-08-06T00:53:01;14.60;99.90
20233;DHT22;37438;55.674;13.074;2023-08-06T00:56:06;14.60;99.90
20233;DHT22;37438;55.674;13.074;2023-08-06T00:59:11;14.60;99.90
20233;DHT22;37438;55.674;13.074;2023-08-06T01:02:16;14.60;99.90
20233;DHT22;37438;55.674;13.074;2023-08-06T01:05:21;14.60;99.90
20233;DHT22;37438;55.674;13.074;2023-08-06T01:08:38;14.50;99.90
20233;DHT22;37438;55.674;13.074;2023-08-06T01:11:57;14.50;99.90
20233;DHT22;37438;55.674;13.074;2023-08-06T01:15:17;14.50;99.90
20233;DHT22;37438;55.674;13.074;2023-08-06T01:18:23;14.50;99.90
20233;DHT22;37438;55.674;13.074;2023-08-06T01:21:27;14.50;99.90
20233;DHT22;37438;55.674;13.074;2023-08-06T01:24:31;14.50;99.90
20233;DHT22;37438;55.674;13.074;2023-08-06T01:27:49;14.40;99.90
20233;DHT22;37438;55.674;13.074;2023-08-06T01:30:54;14.40;99.90
20233;DHT22;37438;55.674;13.074;2023-08-06T01:33:59;14.50;99.90
20233;DHT22;37438;55.674;13.074;2023-08-06T01:37:05;14.50;99.90
20233;DHT22;37438;55.674;13.074;2023-08-06T01:40:12;14.40;99.90
20233;DHT22;37438;55.674;13.074;2023-08-06T01:43:16;14.40;99.90
20233;DHT22;37438;55.674;13.074;2023-08-06T01:46:20;14.40;99.90
20233;DHT22;37438;55.674;13.074;2023-08-06T01:49:25;14.40;99.90
20233;DHT22;37438;55.674;13.074;2023-08-06T01:52:30;14.40;99.90
20233;DHT22;37438;55.674;13.074;2023-08-06T01:55:35;14.40;99.90
20233;DHT22;37438;55.674;13.074;2023-08-06T01:58:39;14.40;99.90
20233;DHT22;37438;55.674;13.074;2023-08-06T02:01:43;14.40;99.90
20233;DHT22;37438;55.674;13.074;2023-08-06T02:04:47;14.40;99.90
20233;DHT22;37438;55.674;13.074;2023-08-06T02:07:52;14.30;99.90
20233;DHT22;37438;55.674;13.074;2023-08-06T02:10:56;14.40;99.90
20233;DHT22;37438;55.674;13.074;2023-08-06T02:14:02;14.30;99.90
20233;DHT22;37438;55.674;13.074;2023-08-06T02:17:07;14.40;99.90
20233;DHT22;37438;55.674;13.074;2023-08-06T02:20:11;14.30;99.90
20233;DHT22;37438;55.674;13.074;2023-08-06T02:23:15;14.30;99.90
20233;DHT22;37438;55.674;13.074;2023-08-06T02:26:20;14.30;99.90
20233;DHT22;37438;55.674;13.074;2023-08-06T02:29:25;14.30;99.90
20233;DHT22;37438;55.674;13.074;2023-08-06T02:32:29;14.30;99.90
20233;DHT22;37438;55.674;13.074;2023-08-06T02:35:37;14.20;99.90
20233;DHT22;37438;55.674;13.074;2023-08-06T02:38:41;14.20;99.90
20233;DHT22;37438;55.674;13.074;2023-08-06T02:41:45;14.20;99.90
20233;DHT22;37438;55.674;13.074;2023-08-06T02:44:50;14.20;99.90
20233;DHT22;37438;55.674;13.074;2023-08-06T02:47:54;14.20;99.90
20233;DHT22;37438;55.674;13.074;2023-08-06T02:50:59;14.20;99.90
20233;DHT22;37438;55.674;13.074;2023-08-06T02:54:05;14.20;99.90
20233;DHT22;37438;55.674;13.074;2023-08-06T02:57:11;14.20;99.90
20233;DHT22;37438;55.674;13.074;2023-08-06T03:00:16;14.10;99.90
20233;DHT22;37438;55.674;13.074;2023-08-06T03:03:21;14.10;99.90
20233;DHT22;37438;55.674;13.074;2023-08-06T03:06:32;14.10;99.90
20233;DHT22;37438;55.674;13.074;2023-08-06T03:09:39;14.00;99.90
20233;DHT22;37438;55.674;13.074;2023-08-06T03:12:43;14.00;99.90
20233;DHT22;37438;55.674;13.074;2023-08-06T03:15:51;14.00;99.90
20233;DHT22;37438;55.674;13.074;2023-08-06T03:18:57;14.00;99.90
20233;DHT22;37438;55.674;13.074;2023-08-06T03:22:01;14.00;99.90
20233;DHT22;37438;55.674;13.074;2023-08-06T03:25:07;14.00;99.90
20233;DHT22;37438;55.674;13.074;2023-08-06T03:28:13;14.00;99.90
20233;DHT22;37438;55.674;13.074;2023-08-06T03:31:18;14.00;99.90
20233;DHT22;37438;55.674;13.074;2023-08-06T03:34:22;14.00;99.90
20233;DHT22;37438;55.674;13.074;2023-08-06T03:37:28;14.00;99.90
20233;DHT22;37438;55.674;13.074;2023-08-06T03:40:34;14.00;99.90
20233;DHT22;37438;55.674;13.074;2023-08-06T03:43:38;14.00;99.90
20233;DHT22;37438;55.674;13.074;2023-08-06T03:46:48;14.00;99.90
20233;DHT22;37438;55.674;13.074;2023-08-06T03:49:52;14.00;99.90
20233;DHT22;37438;55.674;13.074;2023-08-06T03:52:58;14.00;99.90
20233;DHT22;37438;55.674;13.074;2023-08-06T03:56:06;14.00;99.90
20233;DHT22;37438;55.674;13.074;2023-08-06T03:59:11;14.00;99.90
20233;DHT22;37438;55.674;13.074;2023-08-06T04:02:16;14.10;99.90
20233;DHT22;37438;55.674;13.074;2023-08-06T04:05:21;14.10;99.90
20233;DHT22;37438;55.674;13.074;2023-08-06T04:08:25;14.20;99.90
20233;DHT22;37438;55.674;13.074;2023-08-06T04:11:29;14.20;99.90
20233;DHT22;37438;55.674;13.074;2023-08-06T04:14:33;14.20;99.90
20233;DHT22;37438;55.674;13.074;2023-08-06T04:17:38;14.30;99.90
20233;DHT22;37438;55.674;13.074;2023-08-06T04:20:45;14.30;99.90
20233;DHT22;37438;55.674;13.074;2023-08-06T04:23:50;14.40;99.90
20233;DHT22;37438;55.674;13.074;2023-08-06T04:26:55;14.40;99.90
20233;DHT22;37438;55.674;13.074;2023-08-06T04:29:59;14.50;99.90
20233;DHT22;37438;55.674;13.074;2023-08-06T04:33:03;14.50;99.90
20233;DHT22;37438;55.674;13.074;2023-08-06T04:36:09;14.60;99.90
20233;DHT22;37438;55.674;13.074;2023-08-06T04:39:14;14.60;99.90
20233;DHT22;37438;55.674;13.074;2023-08-06T04:42:18;14.70;99.90
20233;DHT22;37438;55.674;13.074;2023-08-06T04:45:23;14.80;99.90
20233;DHT22;37438;55.674;13.074;2023-08-06T04:48:28;14.80;99.90
20233;DHT22;37438;55.674;13.074;2023-08-06T04:51:32;14.80;99.90
20233;DHT22;37438;55.674;13.074;2023-08-06T04:54:36;14.80;99.90
20233;DHT22;37438;55.674;13.074;2023-08-06T04:57:41;14.90;99.90
20233;DHT22;37438;55.674;13.074;2023-08-06T05:00:45;15.00;99.90
20233;DHT22;37438;55.674;13.074;2023-08-06T05:03:49;15.00;99.90
20233;DHT22;37438;55.674;13.074;2023-08-06T05:06:54;15.10;99.90
20233;DHT22;37438;55.674;13.074;2023-08-06T05:09:58;15.30;99.90
20233;DHT22;37438;55.674;13.074;2023-08-06T05:13:02;15.30;99.90
20233;DHT22;37438;55.674;13.074;2023-08-06T05:16:06;15.40;99.90
20233;DHT22;37438;55.674;13.074;2023-08-06T05:19:10;15.40;99.90
20233;DHT22;37438;55.674;13.074;2023-08-06T05:22:15;15.50;99.90
20233;DHT22;37438;55.674;13.074;2023-08-06T05:25:19;15.50;99.90
20233;DHT22;37438;55.674;13.074;2023-08-06T05:28:24;15.60;99.90
20233;DHT22;37438;55.674;13.074;2023-08-06T05:31:28;15.60;99.90
20233;DHT22;37438;55.674;13.074;2023-08-06T05:34:33;15.60;99.90
20233;DHT22;37438;55.674;13.074;2023-08-06T05:37:37;15.70;99.90
20233;DHT22;37438;55.674;13.074;2023-08-06T05:40:41;15.80;99.90
20233;DHT22;37438;55.674;13.074;2023-08-06T05:43:46;15.90;99.90
20233;DHT22;37438;55.674;13.074;2023-08-06T05:46:50;16.00;99.90
20233;DHT22;37438;55.674;13.074;2023-08-06T05:49:54;16.00;99.90
20233;DHT22;37438;55.674;13.074;2023-08-06T05:52:58;16.10;99.90
20233;DHT22;37438;55.674;13.074;2023-08-06T05:56:05;16.10;99.90
20233;DHT22;37438;55.674;13.074;2023-08-06T05:59:09;16.20;99.90
20233;DHT22;37438;55.674;13.074;2023-08-06T06:02:13;16.30;99.90
20233;DHT22;37438;55.674;13.074;2023-08-06T06:05:17;16.40;99.90
20233;DHT22;37438;55.674;13.074;2023-08-06T06:08:21;16.40;99.90
20233;DHT22;37438;55.674;13.074;2023-08-06T06:11:25;16.60;99.90
20233;DHT22;37438;55.674;13.074;2023-08-06T06:14:30;16.70;99.90
20233;DHT22;37438;55.674;13.074;2023-08-06T06:17:34;16.70;99.90
20233;DHT22;37438;55.674;13.074;2023-08-06T06:20:38;16.80;99.90
20233;DHT22;37438;55.674;13.074;2023-08-06T06:23:42;16.80;99.90
20233;DHT22;37438;55.674;13.074;2023-08-06T06:26:47;16.90;99.90
20233;DHT22;37438;55.674;13.074;2023-08-06T06:29:51;17.00;99.90
20233;DHT22;37438;55.674;13.074;2023-08-06T06:32:56;17.00;99.90
20233;DHT22;37438;55.674;13.074;2023-08-06T06:36:01;17.10;99.90
20233;DHT22;37438;55.674;13.074;2023-08-06T06:39:07;17.20;99.90
20233;DHT22;37438;55.674;13.074;2023-08-06T06:42:12;17.30;99.90
20233;DHT22;37438;55.674;13.074;2023-08-06T06:45:21;17.30;99.90
20233;DHT22;37438;55.674;13.074;2023-08-06T06:48:26;17.40;99.90
20233;DHT22;37438;55.674;13.074;2023-08-06T06:51:30;17.50;99.90
20233;DHT22;37438;55.674;13.074;2023-08-06T06:54:36;17.60;99.90
20233;DHT22;37438;55.674;13.074;2023-08-06T06:57:40;17.60;99.90
20233;DHT22;37438;55.674;13.074;2023-08-06T07:00:43;17.70;99.90
20233;DHT22;37438;55.674;13.074;2023-08-06T07:03:48;17.80;99.90
20233;DHT22;37438;55.674;13.074;2023-08-06T07:06:53;18.00;99.90
20233;DHT22;37438;55.674;13.074;2023-08-06T07:09:58;18.10;99.90
20233;DHT22;37438;55.674;13.074;2023-08-06T07:13:02;17.90;99.90
20233;DHT22;37438;55.674;13.074;2023-08-06T07:16:08;18.00;99.90
20233;DHT22;37438;55.674;13.074;2023-08-06T07:19:14;18.00;99.90
20233;DHT22;37438;55.674;13.074;2023-08-06T07:22:19;18.10;99.90
20233;DHT22;37438;55.674;13.074;2023-08-06T07:25:23;18.10;99.90
20233;DHT22;37438;55.674;13.074;2023-08-06T07:28:27;18.20;99.90
20233;DHT22;37438;55.674;13.074;2023-08-06T07:31:32;18.10;99.90
20233;DHT22;37438;55.674;13.074;2023-08-06T07:34:36;18.20;99.90
20233;DHT22;37438;55.674;13.074;2023-08-06T07:37:40;18.20;99.90
20233;DHT22;37438;55.674;13.074;2023-08-06T07:40:45;18.20;99.90
20233;DHT22;37438;55.674;13.074;2023-08-06T07:43:49;18.30;99.90
20233;DHT22;37438;55.674;13.074;2023-08-06T07:46:53;18.40;99.90
20233;DHT22;37438;55.674;13.074;2023-08-06T07:49:57;18.50;99.90
20233;DHT22;37438;55.674;13.074;2023-08-06T07:53:01;18.50;99.90
20233;DHT22;37438;55.674;13.074;2023-08-06T07:56:06;18.40;99.90
20233;DHT22;37438;55.674;13.074;2023-08-06T07:59:10;18.30;99.90
20233;DHT22;37438;55.674;13.074;2023-08-06T08:02:14;18.20;99.90
20233;DHT22;37438;55.674;13.074;2023-08-06T08:05:18;18.30;99.90
20233;DHT22;37438;55.674;13.074;2023-08-06T08:08:23;18.30;99.90
20233;DHT22;37438;55.674;13.074;2023-08-06T08:11:27;18.30;99.90
20233;DHT22;37438;55.674;13.074;2023-08-06T08:14:31;18.30;99.90
20233;DHT22;37438;55.674;13.074;2023-08-06T08:17:42;18.20;99.90
20233;DHT22;37438;55.674;13.074;2023-08-06T08:20:46;18.20;99.90
20233;DHT22;37438;55.674;13.074;2023-08-06T08:23:50;18.10;99.90
20233;DHT22;37438;55.674;13.074;2023-08-06T08:26:54;18.10;99.90
20233;DHT22;37438;55.674;13.074;2023-08-06T08:29:59;18.10;99.90
20233;DHT22;37438;55.674;13.074;2023-08-06T08:33:03;18.00;99.90
20233;DHT22;37438;55.674;13.074;2023-08-06T08:36:08;18.00;99.90
20233;DHT22;37438;55.674;13.074;2023-08-06T08:39:14;17.90;99.90
20233;DHT22;37438;55.674;13.074;2023-08-06T08:42:18;17.80;99.90
20233;DHT22;37438;55.674;13.074;2023-08-06T08:45:23;17.80;99.90
20233;DHT22;37438;55.674;13.074;2023-08-06T08:48:30;17.80;99.90
20233;DHT22;37438;55.674;13.074;2023-08-06T08:51:34;17.60;99.90
20233;DHT22;37438;55.674;13.074;2023-08-06T08:54:42;17.50;99.90
20233;DHT22;37438;55.674;13.074;2023-08-06T08:57:47;17.50;99.90
20233;DHT22;37438;55.674;13.074;2023-08-06T09:00:52;17.50;99.90
20233;DHT22;37438;55.674;13.074;2023-08-06T09:03:56;17.60;99.90
20233;DHT22;37438;55.674;13.074;2023-08-06T09:07:01;17.40;99.90
20233;DHT22;37438;55.674;13.074;2023-08-06T09:10:06;17.40;99.90
20233;DHT22;37438;55.674;13.074;2023-08-06T09:13:11;17.30;99.90
20233;DHT22;37438;55.674;13.074;2023-08-06T09:16:16;17.20;99.90
20233;DHT22;37438;55.674;13.074;2023-08-06T09:19:20;17.30;99.90
20233;DHT22;37438;55.674;13.074;2023-08-06T09:22:24;17.30;99.90
20233;DHT22;37438;55.674;13.074;2023-08-06T09:25:28;17.30;99.90
20233;DHT22;37438;55.674;13.074;2023-08-06T09:28:38;17.30;99.90
20233;DHT22;37438;55.674;13.074;2023-08-06T09:31:44;17.30;99.90
20233;DHT22;37438;55.674;13.074;2023-08-06T09:34:54;17.40;99.90
20233;DHT22;37438;55.674;13.074;2023-08-06T09:38:05;17.30;99.90
20233;DHT22;37438;55.674;13.074;2023-08-06T09:41:11;17.40;99.90
20233;DHT22;37438;55.674;13.074;2023-08-06T09:44:31;17.30;99.90
20233;DHT22;37438;55.674;13.074;2023-08-06T09:47:36;17.30;99.90
20233;DHT22;37438;55.674;13.074;2023-08-06T09:50:40;17.20;99.90
20233;DHT22;37438;55.674;13.074;2023-08-06T09:53:46;17.30;99.90
20233;DHT22;37438;55.674;13.074;2023-08-06T09:56:51;17.30;99.90
20233;DHT22;37438;55.674;13.074;2023-08-06T09:59:55;17.20;99.90
20233;DHT22;37438;55.674;13.074;2023-08-06T10:03:00;17.40;99.90
20233;DHT22;37438;55.674;13.074;2023-08-06T10:06:05;17.20;99.90
20233;DHT22;37438;55.674;13.074;2023-08-06T10:09:12;17.10;99.90
20233;DHT22;37438;55.674;13.074;2023-08-06T10:12:16;17.20;99.90
20233;DHT22;37438;55.674;13.074;2023-08-06T10:15:28;17.10;99.90
20233;DHT22;37438;55.674;13.074;2023-08-06T10:18:35;17.10;99.90
20233;DHT22;37438;55.674;13.074;2023-08-06T10:21:39;17.10;99.90
20233;DHT22;37438;55.674;13.074;2023-08-06T10:30:55;17.30;99.90
20233;DHT22;37438;55.674;13.074;2023-08-06T10:34:00;17.40;99.90
20233;DHT22;37438;55.674;13.074;2023-08-06T10:37:04;17.50;99.90
20233;DHT22;37438;55.674;13.074;2023-08-06T10:40:08;17.30;99.90
20233;DHT22;37438;55.674;13.074;2023-08-06T10:43:24;17.30;99.90
20233;DHT22;37438;55.674;13.074;2023-08-06T10:46:29;17.50;99.90
20233;DHT22;37438;55.674;13.074;2023-08-06T10:49:33;17.50;99.90
20233;DHT22;37438;55.674;13.074;2023-08-06T10:52:38;17.60;99.90
20233;DHT22;37438;55.674;13.074;2023-08-06T10:55:42;17.40;99.90
20233;DHT22;37438;55.674;13.074;2023-08-06T10:58:46;17.60;99.90
20233;DHT22;37438;55.674;13.074;2023-08-06T11:01:51;17.70;99.90
20233;DHT22;37438;55.674;13.074;2023-08-06T11:04:56;17.80;99.90
20233;DHT22;37438;55.674;13.074;2023-08-06T11:08:01;17.90;99.90
20233;DHT22;37438;55.674;13.074;2023-08-06T11:11:12;17.90;99.90
20233;DHT22;37438;55.674;13.074;2023-08-06T11:14:17;17.90;99.90
20233;DHT22;37438;55.674;13.074;2023-08-06T11:17:22;17.70;99.90
20233;DHT22;37438;55.674;13.074;2023-08-06T11:20:26;17.80;99.90
20233;DHT22;37438;55.674;13.074;2023-08-06T11:23:31;17.80;99.90
20233;DHT22;37438;55.674;13.074;2023-08-06T11:26:36;17.90;99.90
20233;DHT22;37438;55.674;13.074;2023-08-06T11:29:41;17.80;99.90
20233;DHT22;37438;55.674;13.074;2023-08-06T11:32:46;17.80;99.90
20233;DHT22;37438;55.674;13.074;2023-08-06T11:35:56;17.80;99.90
20233;DHT22;37438;55.674;13.074;2023-08-06T11:39:01;17.80;99.90
20233;DHT22;37438;55.674;13.074;2023-08-06T11:42:07;17.80;99.90
20233;DHT22;37438;55.674;13.074;2023-08-06T11:45:11;18.00;99.90
20233;DHT22;37438;55.674;13.074;2023-08-06T11:48:16;17.80;99.90
20233;DHT22;37438;55.674;13.074;2023-08-06T11:51:24;17.80;99.90
20233;DHT22;37438;55.674;13.074;2023-08-06T11:54:30;17.90;99.90
20233;DHT22;37438;55.674;13.074;2023-08-06T11:57:38;18.00;99.90
20233;DHT22;37438;55.674;13.074;2023-08-06T12:00:44;18.00;99.90
20233;DHT22;37438;55.674;13.074;2023-08-06T12:03:49;18.00;99.90
20233;DHT22;37438;55.674;13.074;2023-08-06T12:06:53;18.20;99.90
20233;DHT22;37438;55.674;13.074;2023-08-06T12:09:58;18.10;99.90
20233;DHT22;37438;55.674;13.074;2023-08-06T12:13:02;18.30;99.90
20233;DHT22;37438;55.674;13.074;2023-08-06T12:16:07;18.60;99.90
20233;DHT22;37438;55.674;13.074;2023-08-06T12:19:11;18.70;99.90
20233;DHT22;37438;55.674;13.074;2023-08-06T12:22:15;18.50;99.90
20233;DHT22;37438;55.674;13.074;2023-08-06T12:25:20;18.40;99.90
20233;DHT22;37438;55.674;13.074;2023-08-06T12:28:24;18.30;99.90
20233;DHT22;37438;55.674;13.074;2023-08-06T12:31:28;18.20;99.90
20233;DHT22;37438;55.674;13.074;2023-08-06T12:34:32;18.40;99.90
20233;DHT22;37438;55.674;13.074;2023-08-06T12:37:55;18.20;99.90
20233;DHT22;37438;55.674;13.074;2023-08-06T12:41:02;18.20;99.90
20233;DHT22;37438;55.674;13.074;2023-08-06T12:44:06;18.20;99.90
20233;DHT22;37438;55.674;13.074;2023-08-06T12:47:11;18.10;99.90
20233;DHT22;37438;55.674;13.074;2023-08-06T12:50:15;18.00;99.90
20233;DHT22;37438;55.674;13.074;2023-08-06T12:53:21;18.00;99.90
20233;DHT22;37438;55.674;13.074;2023-08-06T12:56:27;18.00;99.90
20233;DHT22;37438;55.674;13.074;2023-08-06T12:59:31;18.00;99.90
20233;DHT22;37438;55.674;13.074;2023-08-06T13:02:37;17.80;99.90
20233;DHT22;37438;55.674;13.074;2023-08-06T13:05:42;17.90;99.90
20233;DHT22;37438;55.674;13.074;2023-08-06T13:08:47;18.00;99.90
20233;DHT22;37438;55.674;13.074;2023-08-06T13:11:51;18.00;99.90
20233;DHT22;37438;55.674;13.074;2023-08-06T13:14:55;18.00;99.90
20233;DHT22;37438;55.674;13.074;2023-08-06T13:18:01;18.00;99.90
20233;DHT22;37438;55.674;13.074;2023-08-06T13:21:05;18.00;99.90
20233;DHT22;37438;55.674;13.074;2023-08-06T13:24:09;18.00;99.90
20233;DHT22;37438;55.674;13.074;2023-08-06T13:27:13;17.90;99.90
20233;DHT22;37438;55.674;13.074;2023-08-06T13:30:17;17.90;99.90
20233;DHT22;37438;55.674;13.074;2023-08-06T13:33:22;17.80;99.90
20233;DHT22;37438;55.674;13.074;2023-08-06T13:36:29;17.70;99.90
20233;DHT22;37438;55.674;13.074;2023-08-06T13:39:34;17.70;99.90
20233;DHT22;37438;55.674;13.074;2023-08-06T13:42:38;17.70;99.90
20233;DHT22;37438;55.674;13.074;2023-08-06T13:45:42;17.70;99.90
20233;DHT22;37438;55.674;13.074;2023-08-06T13:48:47;17.70;99.90
20233;DHT22;37438;55.674;13.074;2023-08-06T13:51:51;17.70;99.90
20233;DHT22;37438;55.674;13.074;2023-08-06T13:54:55;17.70;99.90
20233;DHT22;37438;55.674;13.074;2023-08-06T13:57:59;17.70;99.90
20233;DHT22;37438;55.674;13.074;2023-08-06T14:01:04;17.70;99.90
20233;DHT22;37438;55.674;13.074;2023-08-06T14:04:08;17.60;99.90
20233;DHT22;37438;55.674;13.074;2023-08-06T14:07:14;17.60;99.90
20233;DHT22;37438;55.674;13.074;2023-08-06T14:10:18;17.50;99.90
20233;DHT22;37438;55.674;13.074;2023-08-06T14:13:22;17.40;99.90
20233;DHT22;37438;55.674;13.074;2023-08-06T14:16:26;17.30;99.90
20233;DHT22;37438;55.674;13.074;2023-08-06T14:19:31;17.20;99.90
20233;DHT22;37438;55.674;13.074;2023-08-06T14:22:36;17.20;99.90
20233;DHT22;37438;55.674;13.074;2023-08-06T14:25:40;17.10;99.90
20233;DHT22;37438;55.674;13.074;2023-08-06T14:28:45;17.10;99.90
20233;DHT22;37438;55.674;13.074;2023-08-06T14:31:50;16.80;99.90
20233;DHT22;37438;55.674;13.074;2023-08-06T14:34:55;16.70;99.90
20233;DHT22;37438;55.674;13.074;2023-08-06T14:37:59;16.50;99.90
20233;DHT22;37438;55.674;13.074;2023-08-06T14:41:06;16.50;99.90
20233;DHT22;37438;55.674;13.074;2023-08-06T14:44:10;16.40;99.90
20233;DHT22;37438;55.674;13.074;2023-08-06T14:47:15;16.30;99.90
20233;DHT22;37438;55.674;13.074;2023-08-06T14:50:20;16.30;99.90
20233;DHT22;37438;55.674;13.074;2023-08-06T14:53:24;16.40;99.90
20233;DHT22;37438;55.674;13.074;2023-08-06T14:56:28;16.30;99.90
20233;DHT22;37438;55.674;13.074;2023-08-06T14:59:33;16.30;99.90
20233;DHT22;37438;55.674;13.074;2023-08-06T15:02:38;16.30;99.90
20233;DHT22;37438;55.674;13.074;2023-08-06T15:05:48;16.20;99.90
20233;DHT22;37438;55.674;13.074;2023-08-06T15:08:53;16.30;99.90
20233;DHT22;37438;55.674;13.074;2023-08-06T15:12:02;16.20;99.90
20233;DHT22;37438;55.674;13.074;2023-08-06T15:15:07;16.20;99.90
20233;DHT22;37438;55.674;13.074;2023-08-06T15:18:11;16.20;99.90
20233;DHT22;37438;55.674;13.074;2023-08-06T15:21:15;16.10;99.90
20233;DHT22;37438;55.674;13.074;2023-08-06T15:24:20;16.00;99.90
20233;DHT22;37438;55.674;13.074;2023-08-06T15:27:25;16.00;99.90
20233;DHT22;37438;55.674;13.074;2023-08-06T15:30:29;16.00;99.90
20233;DHT22;37438;55.674;13.074;2023-08-06T15:33:34;16.00;99.90
20233;DHT22;37438;55.674;13.074;2023-08-06T15:36:38;16.00;99.90
20233;DHT22;37438;55.674;13.074;2023-08-06T15:39:42;16.00;99.90
20233;DHT22;37438;55.674;13.074;2023-08-06T15:42:46;15.90;99.90
20233;DHT22;37438;55.674;13.074;2023-08-06T15:45:50;15.80;99.90
20233;DHT22;37438;55.674;13.074;2023-08-06T15:48:54;15.80;99.90
20233;DHT22;37438;55.674;13.074;2023-08-06T15:51:58;15.80;99.90
20233;DHT22;37438;55.674;13.074;2023-08-06T15:55:05;15.70;99.90
20233;DHT22;37438;55.674;13.074;2023-08-06T15:58:10;15.70;99.90
20233;DHT22;37438;55.674;13.074;2023-08-06T16:01:17;15.60;99.90
20233;DHT22;37438;55.674;13.074;2023-08-06T16:04:32;15.60;99.90
20233;DHT22;37438;55.674;13.074;2023-08-06T16:07:40;15.60;99.90
20233;DHT22;37438;55.674;13.074;2023-08-06T16:10:47;15.60;99.90
20233;DHT22;37438;55.674;13.074;2023-08-06T16:13:52;15.60;99.90
20233;DHT22;37438;55.674;13.074;2023-08-06T16:17:07;15.70;99.90
20233;DHT22;37438;55.674;13.074;2023-08-06T16:20:17;15.60;99.90
20233;DHT22;37438;55.674;13.074;2023-08-06T16:23:23;15.70;99.90
20233;DHT22;37438;55.674;13.074;2023-08-06T16:26:28;15.60;99.90
20233;DHT22;37438;55.674;13.074;2023-08-06T16:29:35;15.60;99.90
20233;DHT22;37438;55.674;13.074;2023-08-06T16:32:40;15.50;99.90
20233;DHT22;37438;55.674;13.074;2023-08-06T16:35:46;15.40;99.90
20233;DHT22;37438;55.674;13.074;2023-08-06T16:38:51;15.50;99.90
20233;DHT22;37438;55.674;13.074;2023-08-06T16:41:56;15.50;99.90
20233;DHT22;37438;55.674;13.074;2023-08-06T16:45:05;15.40;99.90
20233;DHT22;37438;55.674;13.074;2023-08-06T16:48:10;15.40;99.90
20233;DHT22;37438;55.674;13.074;2023-08-06T16:51:03;15.30;99.90
20233;DHT22;37438;55.674;13.074;2023-08-06T16:54:08;15.20;99.90
20233;DHT22;37438;55.674;13.074;2023-08-06T16:57:12;15.20;99.90
20233;DHT22;37438;55.674;13.074;2023-08-06T17:00:16;15.30;99.90
20233;DHT22;37438;55.674;13.074;2023-08-06T17:03:20;15.40;99.90
20233;DHT22;37438;55.674;13.074;2023-08-06T17:06:25;15.30;99.90
20233;DHT22;37438;55.674;13.074;2023-08-06T17:09:29;15.30;99.90
20233;DHT22;37438;55.674;13.074;2023-08-06T17:12:34;15.30;99.90
20233;DHT22;37438;55.674;13.074;2023-08-06T17:15:38;15.30;99.90
20233;DHT22;37438;55.674;13.074;2023-08-06T17:18:42;15.20;99.90
20233;DHT22;37438;55.674;13.074;2023-08-06T17:21:47;15.20;99.90
20233;DHT22;37438;55.674;13.074;2023-08-06T17:24:51;15.20;99.90
20233;DHT22;37438;55.674;13.074;2023-08-06T17:27:56;15.20;99.90
20233;DHT22;37438;55.674;13.074;2023-08-06T17:31:00;15.20;99.90
20233;DHT22;37438;55.674;13.074;2023-08-06T17:34:05;15.10;99.90
20233;DHT22;37438;55.674;13.074;2023-08-06T17:37:09;15.10;99.90
20233;DHT22;37438;55.674;13.074;2023-08-06T17:40:13;15.10;99.90
20233;DHT22;37438;55.674;13.074;2023-08-06T17:43:18;15.10;99.90
20233;DHT22;37438;55.674;13.074;2023-08-06T17:46:22;15.20;99.90
20233;DHT22;37438;55.674;13.074;2023-08-06T17:49:26;15.10;99.90
20233;DHT22;37438;55.674;13.074;2023-08-06T17:52:30;15.10;99.90
20233;DHT22;37438;55.674;13.074;2023-08-06T17:55:34;15.10;99.90
20233;DHT22;37438;55.674;13.074;2023-08-06T17:58:38;15.10;99.90
20233;DHT22;37438;55.674;13.074;2023-08-06T18:01:43;15.00;99.90
20233;DHT22;37438;55.674;13.074;2023-08-06T18:04:47;15.00;99.90
20233;DHT22;37438;55.674;13.074;2023-08-06T18:07:51;15.00;99.90
20233;DHT22;37438;55.674;13.074;2023-08-06T18:10:56;15.00;99.90
20233;DHT22;37438;55.674;13.074;2023-08-06T18:14:01;15.00;99.90
20233;DHT22;37438;55.674;13.074;2023-08-06T18:17:05;14.90;99.90
20233;DHT22;37438;55.674;13.074;2023-08-06T18:20:09;14.90;99.90
20233;DHT22;37438;55.674;13.074;2023-08-06T18:23:14;14.90;99.90
20233;DHT22;37438;55.674;13.074;2023-08-06T18:26:18;14.90;99.90
20233;DHT22;37438;55.674;13.074;2023-08-06T18:29:22;14.80;99.90
20233;DHT22;37438;55.674;13.074;2023-08-06T18:32:27;14.90;99.90
20233;DHT22;37438;55.674;13.074;2023-08-06T18:35:31;14.80;99.90
20233;DHT22;37438;55.674;13.074;2023-08-06T18:38:36;14.70;99.90
20233;DHT22;37438;55.674;13.074;2023-08-06T18:41:40;14.70;99.90
20233;DHT22;37438;55.674;13.074;2023-08-06T18:44:44;14.70;99.90
20233;DHT22;37438;55.674;13.074;2023-08-06T18:47:48;14.70;99.90
20233;DHT22;37438;55.674;13.074;2023-08-06T18:50:53;14.60;99.90
20233;DHT22;37438;55.674;13.074;2023-08-06T18:53:59;14.60;99.90
20233;DHT22;37438;55.674;13.074;2023-08-06T18:57:04;14.60;99.90
20233;DHT22;37438;55.674;13.074;2023-08-06T19:00:09;14.60;99.90
20233;DHT22;37438;55.674;13.074;2023-08-06T19:03:13;14.60;99.90
20233;DHT22;37438;55.674;13.074;2023-08-06T19:06:18;14.50;99.90
20233;DHT22;37438;55.674;13.074;2023-08-06T19:09:22;14.50;99.90
20233;DHT22;37438;55.674;13.074;2023-08-06T19:12:26;14.50;99.90
20233;DHT22;37438;55.674;13.074;2023-08-06T19:15:30;14.40;99.90